ADDS METAR Data INFO
IDs: Format: Raw Decoded Include TAF

Data at: 0427 UTC 21 Nov 2017

KHOU 210353Z 09003KT 10SM FEW250 13/11 A3004 RMK AO2 SLP176 T01330111
KHOU 210253Z COR 08005KT 10SM FEW110 SCT250 14/11 A3004 RMK AO2 SLP178 T01390111 58007
KHOU 210153Z 00000KT 10SM FEW120 SCT250 14/11 A3006 RMK AO2 SLP183 T01390106
KHOU 210053Z 10004KT 10SM FEW090 FEW250 14/11 A3007 RMK AO2 SLP186 T01440106
KHOU 202353Z 11007KT 10SM FEW045 SCT090 SCT250 16/10 A3006 RMK AO2 SLP185 T01560100 10189 20156 55008
KHOU 202253Z 11008KT 10SM FEW045 FEW200 SCT250 17/09 A3006 RMK AO2 SLP184 T01670094
KHOU 202153Z 11008KT 10SM FEW050 FEW200 SCT250 18/09 A3007 RMK AO2 SLP186 T01830094
KHOU 202053Z 10009KT 10SM FEW050 SCT250 18/08 A3009 RMK AO2 SLP193 T01830083 56038
KHOU 201953Z 11008KT 10SM FEW050 BKN220 19/08 A3012 RMK AO2 SLP204 T01890078
KHOU 201853Z COR 10008KT 10SM FEW050 BKN220 18/08 A3016 RMK AO2 SLP216 T01780078
KHOU 201753Z COR 16009KT 10SM FEW150 BKN200 18/07 A3020 RMK AO2 SLP230 T01780067 10183 20089 58008
KHOU 201653Z COR 09008KT 10SM FEW150 BKN200 16/05 A3023 RMK AO2 SLP240 T01610050
KHOU 201553Z 08008KT 10SM FEW150 BKN200 16/04 A3024 RMK AO2 SLP244 T01560039
KHOU 201453Z COR 07008KT 10SM BKN200 14/03 A3022 RMK AO2 SLP239 T01390033 51008
KHOU 201353Z 07005KT 10SM BKN200 12/05 A3021 RMK AO2 SLP235 T01170050
KHOU 201253Z 07005KT 10SM BKN200 09/05 A3021 RMK AO2 SLP234 T00940050
KHOU 201153Z 07004KT 10SM BKN200 09/04 A3020 RMK AO2 SLP230 T00890039 10100 20078 58001
KHOU 201053Z 00000KT 10SM BKN190 08/04 A3020 RMK AO2 SLP231 T00830044
KHOU 200953Z 00000KT 10SM BKN250 08/03 A3021 RMK AO2 SLP235 T00830033
KHOU 200853Z 05005KT 10SM SCT250 10/03 A3020 RMK AO2 SLP231 T01000028 58008
KHOU 200753Z 00000KT 10SM OVC250 09/04 A3021 RMK AO2 SLP234 T00940044
KHOU 200653Z 00000KT 10SM OVC240 09/05 A3022 RMK AO2 SLP238 T00940050
KHOU 200553Z 00000KT 10SM OVC250 10/04 A3022 RMK AO2 SLP239 T01000039 10150 20100 401830094 58006
KHOU 200453Z 06004KT 10SM BKN300 12/03 A3024 RMK AO2 SLP244 T01170028
KHOU 200353Z 06006KT 10SM BKN300 12/02 A3024 RMK AO2 SLP244 T01220022
KHOU 200253Z 04006KT 10SM BKN300 13/02 A3024 RMK AO2 SLP245 T01280017 51010
KHOU 200153Z 02005KT 10SM BKN300 13/01 A3024 RMK AO2 SLP243 T01330011
KHOU 200053Z 02007KT 10SM BKN300 14/01 A3023 RMK AO2 SLP240 T01390011
KHOU 192353Z 02008KT 10SM BKN300 15/00 A3021 RMK AO2 SLP235 T01500000 10183 20144 55000
KHOU 192253Z 03007KT 10SM BKN300 16/01 A3021 RMK AO2 SLP234 T01560006
KHOU 192153Z 35009KT 10SM BKN300 17/M01 A3021 RMK AO2 SLP235 T01721006
KHOU 192053Z 34009KT 320V030 10SM BKN250 18/M01 A3021 RMK AO2 SLP236 T01831006 56027
KHOU 191953Z 03008KT 10SM SCT250 18/M01 A3024 RMK AO2 SLP243 T01781011
KHOU 191853Z 01011KT 10SM SCT250 18/M01 A3026 RMK AO2 SLP251 T01781006
KHOU 191753Z 02011G18KT 350V060 10SM FEW250 17/00 A3029 RMK AO2 SLP263 T01720000 10172 20094 58014
KHOU 191653Z 03014G19KT 10SM FEW250 16/01 A3033 RMK AO2 SLP276 T01610006